Avon, North Carolina
Current Conditions -  °F | °C
As of 8:51 AM on Saturday 20 Dec 2014 (Local Time) from KHSE Reporting Station
Scattered Clouds Scattered Clouds  
Wind Chill:   Ceiling: Unl
Heat Index:   Visibility: 10mi
Dew Point:   Wind: 5mph
Humidity: 74%   Direction: NA
Pressure: 30.29"   Gusts: NA
Location:  35.35°N, 75.51°W
Report Text: KHSE 201351Z AUTO VRB04KT 10SM SCT120 06/02 A3029 RMK AO2 SLP256 T00610017 TSNO
Loading
Personal Weather Stations






























Interactive Weather Map New forecast layout! Learn more

10-Day Weather Forecast

Advertisements
Track Severe Weather on mobile